PWSweather.com
Personal Weather Stations
Station Observations
719732
Ponferrada, PonferradaES 24411

PonferradaPonferradaES 24411

Lat: 42.5728, Lon: -6.6425

Elevation: 1676

Station Type: PCE-FWS 20 con garita Ambient Weather SRS100LX

www.meteo.spyfly.es

High Low Average
Temperature 47.7°F8.7°C 34.3°F1.3°C 40.8°F4.9°C
Dew Point 43.1°F6.2°C 32.3°F0.2°C 36.7°F2.6°C
Winds 8.3 mph 13.4 kmh Calm Calm 2.0 mph W3.2 kmh W
Wind Gusts 15.9 mph25.6 kmh -- 5.0 mph8.0 kmh
Humidity 99% 67% 86%
Pressure 29.91 in1012.9 mb 29.78 in1008.5 mb -
Precipitation 0.22 in5.6 mm - -
Hour Temp Dew Point Humidity Winds Wind Gusts Pressure Precip Precip Rate Daily Precip Total
12:00 AM 37.2°F2.9°C 34.0°F1.1°C 88% Calm Calm 2.2 mph3.5 kmh 29.78 in1008.5 mb 0.00 in0.0 mm 0.00 in0.0 mm 0.20 in5.1 mm
12:05 AM 37.2°F2.9°C 34.0°F1.1°C 88% 0.7 mph NNE1.1 kmh NNE 2.2 mph3.5 kmh 29.78 in1008.5 mb 0.00 in0.0 mm 0.00 in0.0 mm 0.20 in5.1 mm
12:10 AM 37.2°F2.9°C 34.3°F1.3°C 89% Calm Calm 3.1 mph5.0 kmh 29.78 in1008.5 mb 0.00 in0.0 mm 0.00 in0.0 mm 0.20 in5.1 mm
12:15 AM 37.2°F2.9°C 34.3°F1.3°C 89% Calm Calm 3.1 mph5.0 kmh 29.78 in1008.5 mb 0.00 in0.0 mm 0.00 in0.0 mm 0.20 in5.1 mm
12:20 AM 37.2°F2.9°C 34.3°F1.3°C 89% Calm Calm 2.2 mph3.5 kmh 29.79 in1008.8 mb 0.01 in0.3 mm 0.12 in3.0 mm 0.21 in5.3 mm
12:25 AM 37.2°F2.9°C 34.3°F1.3°C 89% Calm Calm 0.7 mph1.1 kmh 29.78 in1008.5 mb 0.01 in0.3 mm 0.00 in0.0 mm 0.21 in5.3 mm
12:30 AM 37.0°F2.8°C 34.1°F1.2°C 89% Calm Calm 0.7 mph1.1 kmh 29.78 in1008.5 mb 0.01 in0.3 mm 0.00 in0.0 mm 0.21 in5.3 mm
12:35 AM 37.0°F2.8°C 34.4°F1.3°C 90% Calm Calm -- 29.79 in1008.8 mb 0.01 in0.3 mm 0.00 in0.0 mm 0.21 in5.3 mm
12:40 AM 37.0°F2.8°C 34.4°F1.3°C 90% Calm Calm 1.6 mph2.6 kmh 29.78 in1008.5 mb 0.01 in0.3 mm 0.00 in0.0 mm 0.21 in5.3 mm
12:45 AM 37.2°F2.9°C 34.6°F1.4°C 90% Calm Calm 3.1 mph5.0 kmh 29.78 in1008.5 mb 0.01 in0.3 mm 0.00 in0.0 mm 0.21 in5.3 mm
12:50 AM 37.2°F2.9°C 34.8°F1.6°C 91% 1.6 mph WSW2.6 kmh WSW 4.5 mph7.2 kmh 29.78 in1008.5 mb 0.02 in0.5 mm 0.12 in3.0 mm 0.22 in5.6 mm
12:55 AM 37.4°F3.0°C 36.1°F2.3°C 95% 1.6 mph W2.6 kmh W 5.4 mph8.7 kmh 29.78 in1008.5 mb 0.02 in0.5 mm 0.00 in0.0 mm 0.22 in5.6 mm
01:00 AM 37.6°F3.1°C 36.3°F2.4°C 95% 2.2 mph W3.5 kmh W 5.4 mph8.7 kmh 29.78 in1008.5 mb 0.02 in0.5 mm 0.00 in0.0 mm 0.02 in0.5 mm
01:05 AM 37.4°F3.0°C 36.1°F2.3°C 95% 1.6 mph WNW2.6 kmh WNW 4.5 mph7.2 kmh 29.79 in1008.8 mb 0.02 in0.5 mm 0.00 in0.0 mm 0.02 in0.5 mm
01:10 AM 37.2°F2.9°C 34.8°F1.6°C 91% 2.2 mph WNW3.5 kmh WNW 4.5 mph7.2 kmh 29.79 in1008.8 mb 0.02 in0.5 mm 0.00 in0.0 mm 0.02 in0.5 mm
01:15 AM 37.0°F2.8°C 34.7°F1.5°C 91% 0.7 mph WNW1.1 kmh WNW 3.1 mph5.0 kmh 29.79 in1008.8 mb 0.02 in0.5 mm 0.00 in0.0 mm 0.02 in0.5 mm
01:20 AM 36.9°F2.7°C 34.5°F1.4°C 91% 1.6 mph WNW2.6 kmh WNW 3.8 mph6.1 kmh 29.80 in1009.1 mb 0.01 in0.3 mm 0.00 in0.0 mm 0.02 in0.5 mm
01:25 AM 36.9°F2.7°C 34.5°F1.4°C 91% 3.1 mph W5.0 kmh W 3.8 mph6.1 kmh 29.80 in1009.1 mb 0.01 in0.3 mm 0.00 in0.0 mm 0.02 in0.5 mm
01:30 AM 36.9°F2.7°C 34.5°F1.4°C 91% 1.6 mph WSW2.6 kmh WSW 4.5 mph7.2 kmh 29.79 in1008.8 mb 0.01 in0.3 mm 0.00 in0.0 mm 0.02 in0.5 mm
01:35 AM 36.9°F2.7°C 34.5°F1.4°C 91% 1.6 mph W2.6 kmh W 4.5 mph7.2 kmh 29.80 in1009.1 mb 0.01 in0.3 mm 0.00 in0.0 mm 0.02 in0.5 mm
01:40 AM 36.7°F2.6°C 34.3°F1.3°C 91% 1.6 mph NW2.6 kmh NW 3.1 mph5.0 kmh 29.79 in1008.8 mb 0.01 in0.3 mm 0.00 in0.0 mm 0.02 in0.5 mm
01:45 AM 36.7°F2.6°C 34.3°F1.3°C 91% 0.7 mph WNW1.1 kmh WNW 3.8 mph6.1 kmh 29.79 in1008.8 mb 0.01 in0.3 mm 0.00 in0.0 mm 0.02 in0.5 mm
01:50 AM 36.7°F2.6°C 34.3°F1.3°C 91% Calm Calm 3.8 mph6.1 kmh 29.79 in1008.8 mb 0.00 in0.0 mm 0.00 in0.0 mm 0.02 in0.5 mm
01:55 AM 36.5°F2.5°C 34.1°F1.2°C 91% 1.6 mph NW2.6 kmh NW 3.1 mph5.0 kmh 29.79 in1008.8 mb 0.00 in0.0 mm 0.00 in0.0 mm 0.02 in0.5 mm
02:00 AM 36.3°F2.4°C 34.0°F1.1°C 91% 1.6 mph WNW2.6 kmh WNW 3.1 mph5.0 kmh 29.79 in1008.8 mb 0.00 in0.0 mm 0.00 in0.0 mm 0.02 in0.5 mm
02:05 AM 36.3°F2.4°C 34.0°F1.1°C 91% 2.2 mph WNW3.5 kmh WNW 3.8 mph6.1 kmh 29.79 in1008.8 mb 0.00 in0.0 mm 0.00 in0.0 mm 0.02 in0.5 mm
02:10 AM 36.3°F2.4°C 34.0°F1.1°C 91% 2.2 mph W3.5 kmh W 3.8 mph6.1 kmh 29.79 in1008.8 mb 0.00 in0.0 mm 0.00 in0.0 mm 0.02 in0.5 mm
02:15 AM 36.5°F2.5°C 34.1°F1.2°C 91% 2.2 mph W3.5 kmh W 4.5 mph7.2 kmh 29.79 in1008.8 mb 0.00 in0.0 mm 0.00 in0.0 mm 0.02 in0.5 mm
02:20 AM 36.5°F2.5°C 34.4°F1.3°C 92% 3.1 mph WNW5.0 kmh WNW 4.5 mph7.2 kmh 29.79 in1008.8 mb 0.00 in0.0 mm 0.00 in0.0 mm 0.02 in0.5 mm
02:25 AM 36.7°F2.6°C 34.6°F1.4°C 92% 3.1 mph WNW5.0 kmh WNW 4.5 mph7.2 kmh 29.79 in1008.8 mb 0.00 in0.0 mm 0.00 in0.0 mm 0.02 in0.5 mm
02:30 AM 36.7°F2.6°C 34.6°F1.4°C 92% 2.2 mph W3.5 kmh W 4.5 mph7.2 kmh 29.80 in1009.1 mb 0.00 in0.0 mm 0.00 in0.0 mm 0.02 in0.5 mm
02:35 AM 36.7°F2.6°C 34.6°F1.4°C 92% 2.2 mph W3.5 kmh W 6.0 mph9.7 kmh 29.79 in1008.8 mb 0.00 in0.0 mm 0.00 in0.0 mm 0.02 in0.5 mm
02:40 AM 36.7°F2.6°C 34.6°F1.4°C 92% 3.8 mph W6.1 kmh W 6.0 mph9.7 kmh 29.80 in1009.1 mb 0.00 in0.0 mm 0.00 in0.0 mm 0.02 in0.5 mm
02:45 AM 36.5°F2.5°C 34.4°F1.3°C 92% 2.2 mph WSW3.5 kmh WSW 6.0 mph9.7 kmh 29.79 in1008.8 mb 0.00 in0.0 mm 0.00 in0.0 mm 0.02 in0.5 mm
02:50 AM 36.5°F2.5°C 34.4°F1.3°C 92% 0.7 mph W1.1 kmh W 6.0 mph9.7 kmh 29.79 in1008.8 mb 0.00 in0.0 mm 0.00 in0.0 mm 0.02 in0.5 mm
02:55 AM 36.3°F2.4°C 34.2°F1.2°C 92% 1.6 mph W2.6 kmh W 4.5 mph7.2 kmh 29.80 in1009.1 mb 0.00 in0.0 mm 0.00 in0.0 mm 0.02 in0.5 mm
03:00 AM 36.1°F2.3°C 34.0°F1.1°C 92% Calm Calm 3.1 mph5.0 kmh 29.80 in1009.1 mb 0.00 in0.0 mm 0.00 in0.0 mm 0.02 in0.5 mm
03:05 AM 36.0°F2.2°C 33.9°F1.1°C 92% Calm Calm 2.2 mph3.5 kmh 29.80 in1009.1 mb 0.00 in0.0 mm 0.00 in0.0 mm 0.02 in0.5 mm
03:10 AM 35.8°F2.1°C 33.7°F0.9°C 92% Calm Calm 2.2 mph3.5 kmh 29.81 in1009.5 mb 0.00 in0.0 mm 0.00 in0.0 mm 0.02 in0.5 mm
03:15 AM 35.4°F1.9°C 33.6°F0.9°C 93% Calm Calm 1.6 mph2.6 kmh 29.81 in1009.5 mb 0.00 in0.0 mm 0.00 in0.0 mm 0.02 in0.5 mm
03:20 AM 35.4°F1.9°C 33.3°F0.7°C 92% Calm Calm 1.6 mph2.6 kmh 29.81 in1009.5 mb 0.00 in0.0 mm 0.00 in0.0 mm 0.02 in0.5 mm
03:25 AM 35.2°F1.8°C 33.2°F0.7°C 92% 0.7 mph SW1.1 kmh SW 4.5 mph7.2 kmh 29.80 in1009.1 mb 0.00 in0.0 mm 0.00 in0.0 mm 0.02 in0.5 mm
03:30 AM 35.4°F1.9°C 33.6°F0.9°C 93% 0.7 mph SW1.1 kmh SW 4.5 mph7.2 kmh 29.80 in1009.1 mb 0.00 in0.0 mm 0.00 in0.0 mm 0.02 in0.5 mm
03:35 AM 35.4°F1.9°C 33.6°F0.9°C 93% Calm Calm 2.2 mph3.5 kmh 29.81 in1009.5 mb 0.00 in0.0 mm 0.00 in0.0 mm 0.02 in0.5 mm
03:40 AM 35.4°F1.9°C 33.6°F0.9°C 93% Calm Calm 2.2 mph3.5 kmh 29.81 in1009.5 mb 0.00 in0.0 mm 0.00 in0.0 mm 0.02 in0.5 mm
03:45 AM 35.2°F1.8°C 33.4°F0.8°C 93% 1.6 mph NNW2.6 kmh NNW 3.1 mph5.0 kmh 29.82 in1009.8 mb 0.00 in0.0 mm 0.00 in0.0 mm 0.02 in0.5 mm
03:50 AM 35.1°F1.7°C 33.0°F0.6°C 92% Calm Calm 3.1 mph5.0 kmh 29.82 in1009.8 mb 0.00 in0.0 mm 0.00 in0.0 mm 0.02 in0.5 mm
03:55 AM 34.9°F1.6°C 32.8°F0.4°C 92% 1.6 mph NNW2.6 kmh NNW 3.1 mph5.0 kmh 29.82 in1009.8 mb 0.00 in0.0 mm 0.00 in0.0 mm 0.02 in0.5 mm
04:00 AM 34.7°F1.5°C 32.6°F0.3°C 92% Calm Calm 2.2 mph3.5 kmh 29.81 in1009.5 mb 0.00 in0.0 mm 0.00 in0.0 mm 0.02 in0.5 mm
04:05 AM 34.5°F1.4°C 32.4°F0.2°C 92% Calm Calm 2.2 mph3.5 kmh 29.82 in1009.8 mb 0.00 in0.0 mm 0.00 in0.0 mm 0.02 in0.5 mm
04:10 AM 34.3°F1.3°C 32.3°F0.2°C 92% 0.7 mph NE1.1 kmh NE 1.6 mph2.6 kmh 29.81 in1009.5 mb 0.00 in0.0 mm 0.00 in0.0 mm 0.02 in0.5 mm
04:15 AM 34.3°F1.3°C 32.3°F0.2°C 92% Calm Calm 1.6 mph2.6 kmh 29.81 in1009.5 mb 0.00 in0.0 mm 0.00 in0.0 mm 0.02 in0.5 mm
04:20 AM 34.3°F1.3°C 32.3°F0.2°C 92% Calm Calm 1.6 mph2.6 kmh 29.82 in1009.8 mb 0.00 in0.0 mm 0.00 in0.0 mm 0.02 in0.5 mm
04:25 AM 34.3°F1.3°C 32.3°F0.2°C 92% 0.7 mph N1.1 kmh N 1.6 mph2.6 kmh 29.82 in1009.8 mb 0.00 in0.0 mm 0.00 in0.0 mm 0.02 in0.5 mm
04:30 AM 34.3°F1.3°C 32.5°F0.3°C 93% Calm Calm 1.6 mph2.6 kmh 29.81 in1009.5 mb 0.00 in0.0 mm 0.00 in0.0 mm 0.02 in0.5 mm
04:35 AM 34.3°F1.3°C 32.5°F0.3°C 93% Calm Calm 2.2 mph3.5 kmh 29.82 in1009.8 mb 0.00 in0.0 mm 0.00 in0.0 mm 0.02 in0.5 mm
04:40 AM 34.3°F1.3°C 32.5°F0.3°C 93% Calm Calm 2.2 mph3.5 kmh 29.82 in1009.8 mb 0.00 in0.0 mm 0.00 in0.0 mm 0.02 in0.5 mm
04:45 AM 34.5°F1.4°C 32.7°F0.4°C 93% Calm Calm 1.6 mph2.6 kmh 29.82 in1009.8 mb 0.00 in0.0 mm 0.00 in0.0 mm 0.02 in0.5 mm
04:50 AM 34.5°F1.4°C 32.7°F0.4°C 93% Calm Calm 0.7 mph1.1 kmh 29.82 in1009.8 mb 0.00 in0.0 mm 0.00 in0.0 mm 0.02 in0.5 mm
04:55 AM 34.7°F1.5°C 32.9°F0.5°C 93% 1.6 mph WSW2.6 kmh WSW 4.5 mph7.2 kmh 29.82 in1009.8 mb 0.00 in0.0 mm 0.00 in0.0 mm 0.02 in0.5 mm
05:00 AM 35.2°F1.8°C 33.4°F0.8°C 93% Calm Calm 4.5 mph7.2 kmh 29.82 in1009.8 mb 0.00 in0.0 mm 0.00 in0.0 mm 0.02 in0.5 mm
05:05 AM 35.6°F2.0°C 33.8°F1.0°C 93% 0.7 mph NW1.1 kmh NW 4.5 mph7.2 kmh 29.82 in1009.8 mb 0.00 in0.0 mm 0.00 in0.0 mm 0.02 in0.5 mm
05:10 AM 35.8°F2.1°C 34.0°F1.1°C 93% 1.6 mph W2.6 kmh W 3.8 mph6.1 kmh 29.82 in1009.8 mb 0.00 in0.0 mm 0.00 in0.0 mm 0.02 in0.5 mm
05:15 AM 36.0°F2.2°C 34.1°F1.2°C 93% 1.6 mph WSW2.6 kmh WSW 3.8 mph6.1 kmh 29.82 in1009.8 mb 0.00 in0.0 mm 0.00 in0.0 mm 0.02 in0.5 mm
05:20 AM 36.1°F2.3°C 34.3°F1.3°C 93% 2.2 mph W3.5 kmh W 6.9 mph11.1 kmh 29.82 in1009.8 mb 0.00 in0.0 mm 0.00 in0.0 mm 0.02 in0.5 mm
05:25 AM 36.3°F2.4°C 34.5°F1.4°C 93% 0.7 mph WSW1.1 kmh WSW 6.9 mph11.1 kmh 29.82 in1009.8 mb 0.00 in0.0 mm 0.00 in0.0 mm 0.02 in0.5 mm
05:30 AM 36.3°F2.4°C 34.5°F1.4°C 93% 1.6 mph SW2.6 kmh SW 5.4 mph8.7 kmh 29.82 in1009.8 mb 0.00 in0.0 mm 0.00 in0.0 mm 0.02 in0.5 mm
05:35 AM 36.3°F2.4°C 34.5°F1.4°C 93% 1.6 mph WSW2.6 kmh WSW 6.0 mph9.7 kmh 29.83 in1010.2 mb 0.00 in0.0 mm 0.00 in0.0 mm 0.02 in0.5 mm
05:40 AM 36.5°F2.5°C 34.7°F1.5°C 93% 1.6 mph WSW2.6 kmh WSW 6.0 mph9.7 kmh 29.82 in1009.8 mb 0.00 in0.0 mm 0.00 in0.0 mm 0.02 in0.5 mm
05:45 AM 36.5°F2.5°C 34.7°F1.5°C 93% 1.6 mph WSW2.6 kmh WSW 3.8 mph6.1 kmh 29.83 in1010.2 mb 0.00 in0.0 mm 0.00 in0.0 mm 0.02 in0.5 mm
05:50 AM 36.5°F2.5°C 34.7°F1.5°C 93% 0.7 mph W1.1 kmh W 3.8 mph6.1 kmh 29.83 in1010.2 mb 0.00 in0.0 mm 0.00 in0.0 mm 0.02 in0.5 mm
05:55 AM 36.5°F2.5°C 34.7°F1.5°C 93% 1.6 mph W2.6 kmh W 3.8 mph6.1 kmh 29.82 in1009.8 mb 0.00 in0.0 mm 0.00 in0.0 mm 0.02 in0.5 mm
06:00 AM 36.7°F2.6°C 34.9°F1.6°C 93% 2.2 mph WNW3.5 kmh WNW 5.4 mph8.7 kmh 29.83 in1010.2 mb 0.00 in0.0 mm 0.00 in0.0 mm 0.02 in0.5 mm
06:05 AM 36.7°F2.6°C 34.9°F1.6°C 93% 2.2 mph W3.5 kmh W 5.4 mph8.7 kmh 29.83 in1010.2 mb 0.00 in0.0 mm 0.00 in0.0 mm 0.02 in0.5 mm
06:10 AM 36.5°F2.5°C 34.7°F1.5°C 93% 0.7 mph W1.1 kmh W 4.5 mph7.2 kmh 29.83 in1010.2 mb 0.00 in0.0 mm 0.00 in0.0 mm 0.02 in0.5 mm
06:15 AM 36.3°F2.4°C 34.5°F1.4°C 93% 0.7 mph WNW1.1 kmh WNW 4.5 mph7.2 kmh 29.83 in1010.2 mb 0.00 in0.0 mm 0.00 in0.0 mm 0.02 in0.5 mm
06:20 AM 36.1°F2.3°C 34.3°F1.3°C 93% Calm Calm 2.2 mph3.5 kmh 29.83 in1010.2 mb 0.00 in0.0 mm 0.00 in0.0 mm 0.02 in0.5 mm
06:25 AM 36.1°F2.3°C 34.3°F1.3°C 93% Calm Calm 0.7 mph1.1 kmh 29.83 in1010.2 mb 0.00 in0.0 mm 0.00 in0.0 mm 0.02 in0.5 mm
06:30 AM 36.0°F2.2°C 34.1°F1.2°C 93% Calm Calm 1.6 mph2.6 kmh 29.83 in1010.2 mb 0.00 in0.0 mm 0.00 in0.0 mm 0.02 in0.5 mm
06:35 AM 35.8°F2.1°C 34.0°F1.1°C 93% Calm Calm 3.1 mph5.0 kmh 29.83 in1010.2 mb 0.00 in0.0 mm 0.00 in0.0 mm 0.02 in0.5 mm
06:40 AM 35.6°F2.0°C 33.8°F1.0°C 93% 0.7 mph NW1.1 kmh NW 3.1 mph5.0 kmh 29.84 in1010.5 mb 0.00 in0.0 mm 0.00 in0.0 mm 0.02 in0.5 mm
06:45 AM 35.4°F1.9°C 33.6°F0.9°C 93% Calm Calm 1.6 mph2.6 kmh 29.84 in1010.5 mb 0.00 in0.0 mm 0.00 in0.0 mm 0.02 in0.5 mm
06:50 AM 35.6°F2.0°C 33.8°F1.0°C 93% 1.6 mph WNW2.6 kmh WNW 3.8 mph6.1 kmh 29.84 in1010.5 mb 0.00 in0.0 mm 0.00 in0.0 mm 0.02 in0.5 mm
06:55 AM 35.6°F2.0°C 33.8°F1.0°C 93% Calm Calm 3.8 mph6.1 kmh 29.84 in1010.5 mb 0.00 in0.0 mm 0.00 in0.0 mm 0.02 in0.5 mm
07:00 AM 35.8°F2.1°C 34.0°F1.1°C 93% 1.6 mph W2.6 kmh W 3.1 mph5.0 kmh 29.85 in1010.8 mb 0.00 in0.0 mm 0.00 in0.0 mm 0.02 in0.5 mm
07:05 AM 36.0°F2.2°C 34.1°F1.2°C 93% Calm Calm 3.1 mph5.0 kmh 29.84 in1010.5 mb 0.00 in0.0 mm 0.00 in0.0 mm 0.02 in0.5 mm
07:10 AM 36.0°F2.2°C 34.1°F1.2°C 93% Calm Calm 3.1 mph5.0 kmh 29.85 in1010.8 mb 0.00 in0.0 mm 0.00 in0.0 mm 0.02 in0.5 mm
07:15 AM 36.0°F2.2°C 34.1°F1.2°C 93% Calm Calm 2.2 mph3.5 kmh 29.85 in1010.8 mb 0.00 in0.0 mm 0.00 in0.0 mm 0.02 in0.5 mm
07:20 AM 36.1°F2.3°C 34.3°F1.3°C 93% Calm Calm 2.2 mph3.5 kmh 29.85 in1010.8 mb 0.00 in0.0 mm 0.00 in0.0 mm 0.02 in0.5 mm
07:25 AM 36.1°F2.3°C 34.3°F1.3°C 93% Calm Calm 2.2 mph3.5 kmh 29.85 in1010.8 mb 0.00 in0.0 mm 0.00 in0.0 mm 0.02 in0.5 mm
07:30 AM 36.1°F2.3°C 34.3°F1.3°C 93% Calm Calm 2.2 mph3.5 kmh 29.85 in1010.8 mb 0.00 in0.0 mm 0.00 in0.0 mm 0.02 in0.5 mm
07:35 AM 36.1°F2.3°C 34.3°F1.3°C 93% Calm Calm 2.2 mph3.5 kmh 29.85 in1010.8 mb 0.00 in0.0 mm 0.00 in0.0 mm 0.02 in0.5 mm
07:40 AM 36.1°F2.3°C 34.3°F1.3°C 93% 2.2 mph WSW3.5 kmh WSW 4.5 mph7.2 kmh 29.85 in1010.8 mb 0.00 in0.0 mm 0.00 in0.0 mm 0.02 in0.5 mm
07:45 AM 36.1°F2.3°C 34.3°F1.3°C 93% 1.6 mph W2.6 kmh W 4.5 mph7.2 kmh 29.85 in1010.8 mb 0.00 in0.0 mm 0.00 in0.0 mm 0.02 in0.5 mm
07:50 AM 36.0°F2.2°C 34.1°F1.2°C 93% Calm Calm 4.5 mph7.2 kmh 29.86 in1011.2 mb 0.00 in0.0 mm 0.00 in0.0 mm 0.02 in0.5 mm
07:55 AM 35.8°F2.1°C 34.0°F1.1°C 93% Calm Calm 2.2 mph3.5 kmh 29.86 in1011.2 mb 0.00 in0.0 mm 0.00 in0.0 mm 0.02 in0.5 mm
08:00 AM 35.4°F1.9°C 33.9°F1.1°C 94% 0.7 mph NW1.1 kmh NW 1.6 mph2.6 kmh 29.86 in1011.2 mb 0.00 in0.0 mm 0.00 in0.0 mm 0.02 in0.5 mm
08:05 AM 35.4°F1.9°C 33.9°F1.1°C 94% 0.7 mph NW1.1 kmh NW 2.2 mph3.5 kmh 29.85 in1010.8 mb 0.00 in0.0 mm 0.00 in0.0 mm 0.02 in0.5 mm
08:10 AM 35.2°F1.8°C 33.7°F0.9°C 94% 0.7 mph W1.1 kmh W 3.1 mph5.0 kmh 29.86 in1011.2 mb 0.00 in0.0 mm 0.00 in0.0 mm 0.02 in0.5 mm
08:15 AM 35.2°F1.8°C 33.7°F0.9°C 94% 1.6 mph W2.6 kmh W 3.1 mph5.0 kmh 29.86 in1011.2 mb 0.00 in0.0 mm 0.00 in0.0 mm 0.02 in0.5 mm
08:20 AM 35.4°F1.9°C 33.9°F1.1°C 94% 1.6 mph W2.6 kmh W 3.8 mph6.1 kmh 29.86 in1011.2 mb 0.00 in0.0 mm 0.00 in0.0 mm 0.02 in0.5 mm
08:25 AM 35.2°F1.8°C 33.7°F0.9°C 94% 1.6 mph W2.6 kmh W 3.8 mph6.1 kmh 29.86 in1011.2 mb 0.00 in0.0 mm 0.00 in0.0 mm 0.02 in0.5 mm
08:30 AM 35.1°F1.7°C 33.5°F0.8°C 94% 2.2 mph WNW3.5 kmh WNW 3.8 mph6.1 kmh 29.86 in1011.2 mb 0.00 in0.0 mm 0.00 in0.0 mm 0.02 in0.5 mm
08:35 AM 35.2°F1.8°C 33.7°F0.9°C 94% Calm Calm 3.8 mph6.1 kmh 29.86 in1011.2 mb 0.00 in0.0 mm 0.00 in0.0 mm 0.02 in0.5 mm
08:40 AM 35.1°F1.7°C 33.5°F0.8°C 94% Calm Calm 3.8 mph6.1 kmh 29.87 in1011.5 mb 0.00 in0.0 mm 0.00 in0.0 mm 0.02 in0.5 mm
08:45 AM 35.1°F1.7°C 33.5°F0.8°C 94% Calm Calm 2.2 mph3.5 kmh 29.87 in1011.5 mb 0.00 in0.0 mm 0.00 in0.0 mm 0.02 in0.5 mm
08:50 AM 35.2°F1.8°C 33.7°F0.9°C 94% Calm Calm 0.7 mph1.1 kmh 29.87 in1011.5 mb 0.00 in0.0 mm 0.00 in0.0 mm 0.02 in0.5 mm
08:55 AM 35.4°F1.9°C 33.9°F1.1°C 94% Calm Calm 0.7 mph1.1 kmh 29.87 in1011.5 mb 0.00 in0.0 mm 0.00 in0.0 mm 0.02 in0.5 mm
09:00 AM 35.4°F1.9°C 33.9°F1.1°C 94% Calm Calm -- 29.87 in1011.5 mb 0.00 in0.0 mm 0.00 in0.0 mm 0.02 in0.5 mm
09:05 AM 35.4°F1.9°C 33.9°F1.1°C 94% Calm Calm -- 29.87 in1011.5 mb 0.00 in0.0 mm 0.00 in0.0 mm 0.02 in0.5 mm
09:10 AM 35.4°F1.9°C 33.9°F1.1°C 94% 1.6 mph N2.6 kmh N 2.2 mph3.5 kmh 29.87 in1011.5 mb 0.00 in0.0 mm 0.00 in0.0 mm 0.02 in0.5 mm
09:15 AM 35.4°F1.9°C 33.9°F1.1°C 94% 0.7 mph N1.1 kmh N 2.2 mph3.5 kmh 29.88 in1011.9 mb 0.00 in0.0 mm 0.00 in0.0 mm 0.02 in0.5 mm
09:20 AM 35.6°F2.0°C 33.8°F1.0°C 93% 2.2 mph N3.5 kmh N 3.1 mph5.0 kmh 29.88 in1011.9 mb 0.00 in0.0 mm 0.00 in0.0 mm 0.02 in0.5 mm
09:25 AM 35.8°F2.1°C 34.0°F1.1°C 93% Calm Calm 3.1 mph5.0 kmh 29.88 in1011.9 mb 0.00 in0.0 mm 0.00 in0.0 mm 0.02 in0.5 mm
09:30 AM 36.0°F2.2°C 34.1°F1.2°C 93% Calm Calm 3.1 mph5.0 kmh 29.88 in1011.9 mb 0.00 in0.0 mm 0.00 in0.0 mm 0.02 in0.5 mm
09:35 AM 36.0°F2.2°C 34.4°F1.3°C 94% 1.6 mph ESE2.6 kmh ESE 2.2 mph3.5 kmh 29.88 in1011.9 mb 0.00 in0.0 mm 0.00 in0.0 mm 0.02 in0.5 mm
09:40 AM 36.1°F2.3°C 34.6°F1.4°C 94% 3.1 mph SE5.0 kmh SE 4.5 mph7.2 kmh 29.88 in1011.9 mb 0.00 in0.0 mm 0.00 in0.0 mm 0.02 in0.5 mm
09:45 AM 36.5°F2.5°C 34.9°F1.6°C 94% 2.2 mph SE3.5 kmh SE 4.5 mph7.2 kmh 29.88 in1011.9 mb 0.00 in0.0 mm 0.00 in0.0 mm 0.02 in0.5 mm
09:50 AM 36.7°F2.6°C 35.1°F1.7°C 94% 1.6 mph SE2.6 kmh SE 4.5 mph7.2 kmh 29.89 in1012.2 mb 0.00 in0.0 mm 0.00 in0.0 mm 0.02 in0.5 mm
09:55 AM 37.0°F2.8°C 35.5°F1.9°C 94% 1.6 mph S2.6 kmh S 4.5 mph7.2 kmh 29.88 in1011.9 mb 0.00 in0.0 mm 0.00 in0.0 mm 0.02 in0.5 mm
10:00 AM 37.4°F3.0°C 36.9°F2.7°C 98% 0.7 mph NW1.1 kmh NW 4.5 mph7.2 kmh 29.89 in1012.2 mb 0.01 in0.3 mm 0.01 in0.3 mm 0.01 in0.3 mm
10:05 AM 37.4°F3.0°C 36.9°F2.7°C 98% 0.7 mph N1.1 kmh N 2.2 mph3.5 kmh 29.89 in1012.2 mb 0.01 in0.3 mm 0.00 in0.0 mm 0.01 in0.3 mm
10:10 AM 38.3°F3.5°C 38.0°F3.3°C 99% Calm Calm 1.6 mph2.6 kmh 29.89 in1012.2 mb 0.01 in0.3 mm 0.00 in0.0 mm 0.01 in0.3 mm
10:15 AM 38.8°F3.8°C 38.6°F3.7°C 99% Calm Calm 2.2 mph3.5 kmh 29.89 in1012.2 mb 0.01 in0.3 mm 0.00 in0.0 mm 0.01 in0.3 mm
10:20 AM 39.7°F4.3°C 39.5°F4.2°C 99% 1.6 mph WSW2.6 kmh WSW 3.8 mph6.1 kmh 29.89 in1012.2 mb 0.01 in0.3 mm 0.00 in0.0 mm 0.01 in0.3 mm
10:25 AM 40.8°F4.9°C 40.6°F4.8°C 99% 1.6 mph SW2.6 kmh SW 3.8 mph6.1 kmh 29.89 in1012.2 mb 0.01 in0.3 mm 0.00 in0.0 mm 0.01 in0.3 mm
10:30 AM 41.7°F5.4°C 41.2°F5.1°C 98% 2.2 mph SSW3.5 kmh SSW 5.4 mph8.7 kmh 29.89 in1012.2 mb 0.01 in0.3 mm 0.00 in0.0 mm 0.01 in0.3 mm
10:35 AM 42.4°F5.8°C 41.9°F5.5°C 98% 4.5 mph SW7.2 kmh SW 7.6 mph12.2 kmh 29.89 in1012.2 mb 0.01 in0.3 mm 0.00 in0.0 mm 0.01 in0.3 mm
10:40 AM 43.5°F6.4°C 42.5°F5.8°C 96% 5.4 mph SW8.7 kmh SW 9.2 mph14.8 kmh 29.89 in1012.2 mb 0.01 in0.3 mm 0.00 in0.0 mm 0.01 in0.3 mm
10:45 AM 44.1°F6.7°C 42.7°F5.9°C 95% 1.6 mph S2.6 kmh S 9.2 mph14.8 kmh 29.90 in1012.5 mb 0.01 in0.3 mm 0.00 in0.0 mm 0.01 in0.3 mm
10:50 AM 44.6°F7.0°C 42.7°F5.9°C 93% 3.1 mph SW5.0 kmh SW 7.6 mph12.2 kmh 29.89 in1012.2 mb 0.01 in0.3 mm 0.00 in0.0 mm 0.01 in0.3 mm
10:55 AM 45.3°F7.4°C 43.1°F6.2°C 92% 5.4 mph WSW8.7 kmh WSW 9.2 mph14.8 kmh 29.89 in1012.2 mb 0.01 in0.3 mm 0.00 in0.0 mm 0.01 in0.3 mm
11:00 AM 45.9°F7.7°C 42.8°F6.0°C 89% 7.6 mph WSW12.2 kmh WSW 9.2 mph14.8 kmh 29.90 in1012.5 mb 0.00 in0.0 mm 0.00 in0.0 mm 0.01 in0.3 mm
11:05 AM 45.9°F7.7°C 41.9°F5.5°C 86% 6.0 mph WSW9.7 kmh WSW 9.2 mph14.8 kmh 29.89 in1012.2 mb 0.00 in0.0 mm 0.00 in0.0 mm 0.01 in0.3 mm
11:10 AM 45.5°F7.5°C 41.0°F5.0°C 84% 6.0 mph WSW9.7 kmh WSW 9.2 mph14.8 kmh 29.90 in1012.5 mb 0.00 in0.0 mm 0.00 in0.0 mm 0.01 in0.3 mm
11:15 AM 45.1°F7.3°C 40.0°F4.4°C 82% 3.8 mph WSW6.1 kmh WSW 9.2 mph14.8 kmh 29.90 in1012.5 mb 0.00 in0.0 mm 0.00 in0.0 mm 0.01 in0.3 mm
11:20 AM 45.1°F7.3°C 40.0°F4.4°C 82% 6.0 mph SW9.7 kmh SW 9.2 mph14.8 kmh 29.90 in1012.5 mb 0.00 in0.0 mm 0.00 in0.0 mm 0.01 in0.3 mm
11:25 AM 45.3°F7.4°C 39.8°F4.3°C 81% 3.8 mph WSW6.1 kmh WSW 9.8 mph15.8 kmh 29.90 in1012.5 mb 0.00 in0.0 mm 0.00 in0.0 mm 0.01 in0.3 mm
11:30 AM 45.7°F7.6°C 40.2°F4.6°C 81% 3.8 mph WNW6.1 kmh WNW 9.8 mph15.8 kmh 29.90 in1012.5 mb 0.00 in0.0 mm 0.00 in0.0 mm 0.01 in0.3 mm
11:35 AM 46.0°F7.8°C 40.2°F4.6°C 80% 6.0 mph W9.7 kmh W 9.8 mph15.8 kmh 29.90 in1012.5 mb 0.00 in0.0 mm 0.00 in0.0 mm 0.01 in0.3 mm
11:40 AM 46.4°F8.0°C 40.2°F4.6°C 79% 4.5 mph WSW7.2 kmh WSW 9.8 mph15.8 kmh 29.91 in1012.9 mb 0.00 in0.0 mm 0.00 in0.0 mm 0.01 in0.3 mm
11:45 AM 46.4°F8.0°C 39.9°F4.4°C 78% 7.6 mph WSW12.2 kmh WSW 10.7 mph17.2 kmh 29.91 in1012.9 mb 0.00 in0.0 mm 0.00 in0.0 mm 0.01 in0.3 mm
11:50 AM 45.7°F7.6°C 39.2°F4.0°C 78% 5.4 mph SW8.7 kmh SW 10.7 mph17.2 kmh 29.90 in1012.5 mb 0.00 in0.0 mm 0.00 in0.0 mm 0.01 in0.3 mm
11:55 AM 45.3°F7.4°C 38.9°F3.8°C 78% 5.4 mph WSW8.7 kmh WSW 9.8 mph15.8 kmh 29.91 in1012.9 mb 0.00 in0.0 mm 0.00 in0.0 mm 0.01 in0.3 mm
12:00 PM 45.1°F7.3°C 38.7°F3.7°C 78% 5.4 mph W8.7 kmh W 10.7 mph17.2 kmh 29.91 in1012.9 mb 0.00 in0.0 mm 0.00 in0.0 mm 0.01 in0.3 mm
12:05 PM 45.1°F7.3°C 38.7°F3.7°C 78% 5.4 mph WSW8.7 kmh WSW 10.7 mph17.2 kmh 29.90 in1012.5 mb 0.00 in0.0 mm 0.00 in0.0 mm 0.01 in0.3 mm
12:10 PM 44.8°F7.1°C 38.7°F3.7°C 79% 6.0 mph WSW9.7 kmh WSW 9.2 mph14.8 kmh 29.90 in1012.5 mb 0.00 in0.0 mm 0.00 in0.0 mm 0.01 in0.3 mm
12:15 PM 44.8°F7.1°C 38.7°F3.7°C 79% 2.2 mph W3.5 kmh W 9.8 mph15.8 kmh 29.90 in1012.5 mb 0.00 in0.0 mm 0.00 in0.0 mm 0.01 in0.3 mm
12:20 PM 45.0°F7.2°C 39.2°F4.0°C 80% 3.1 mph SW5.0 kmh SW 9.8 mph15.8 kmh 29.89 in1012.2 mb 0.00 in0.0 mm 0.00 in0.0 mm 0.01 in0.3 mm
12:25 PM 45.1°F7.3°C 39.0°F3.9°C 79% 6.0 mph W9.7 kmh W 9.2 mph14.8 kmh 29.89 in1012.2 mb 0.00 in0.0 mm 0.00 in0.0 mm 0.01 in0.3 mm
12:30 PM 45.5°F7.5°C 39.4°F4.1°C 79% 1.6 mph WSW2.6 kmh WSW 9.2 mph14.8 kmh 29.89 in1012.2 mb 0.00 in0.0 mm 0.00 in0.0 mm 0.01 in0.3 mm
12:35 PM 45.7°F7.6°C 39.2°F4.0°C 78% 5.4 mph WSW8.7 kmh WSW 8.3 mph13.4 kmh 29.89 in1012.2 mb 0.00 in0.0 mm 0.00 in0.0 mm 0.01 in0.3 mm
12:40 PM 45.7°F7.6°C 38.9°F3.8°C 77% 4.5 mph WSW7.2 kmh WSW 8.3 mph13.4 kmh 29.89 in1012.2 mb 0.00 in0.0 mm 0.00 in0.0 mm 0.01 in0.3 mm
12:45 PM 45.9°F7.7°C 38.7°F3.7°C 76% 3.1 mph WSW5.0 kmh WSW 8.3 mph13.4 kmh 29.89 in1012.2 mb 0.00 in0.0 mm 0.00 in0.0 mm 0.01 in0.3 mm
12:50 PM 46.0°F7.8°C 38.6°F3.7°C 75% 5.4 mph WNW8.7 kmh WNW 8.3 mph13.4 kmh 29.89 in1012.2 mb 0.00 in0.0 mm 0.00 in0.0 mm 0.01 in0.3 mm
12:55 PM 46.2°F7.9°C 38.4°F3.6°C 74% 2.2 mph WNW3.5 kmh WNW 7.6 mph12.2 kmh 29.89 in1012.2 mb 0.00 in0.0 mm 0.00 in0.0 mm 0.01 in0.3 mm
01:00 PM 46.8°F8.2°C 38.9°F3.8°C 74% 3.8 mph WSW6.1 kmh WSW 7.6 mph12.2 kmh 29.89 in1012.2 mb 0.00 in0.0 mm 0.00 in0.0 mm 0.01 in0.3 mm
01:05 PM 47.1°F8.4°C 38.6°F3.7°C 72% 5.4 mph WSW8.7 kmh WSW 9.2 mph14.8 kmh 29.89 in1012.2 mb 0.00 in0.0 mm 0.00 in0.0 mm 0.01 in0.3 mm
01:10 PM 47.1°F8.4°C 38.2°F3.4°C 71% 6.0 mph W9.7 kmh W 9.8 mph15.8 kmh 29.89 in1012.2 mb 0.00 in0.0 mm 0.00 in0.0 mm 0.01 in0.3 mm
01:15 PM 47.1°F8.4°C 38.2°F3.4°C 71% 4.5 mph W7.2 kmh W 9.8 mph15.8 kmh 29.88 in1011.9 mb 0.00 in0.0 mm 0.00 in0.0 mm 0.01 in0.3 mm
01:20 PM 46.9°F8.3°C 38.0°F3.3°C 71% 4.5 mph WNW7.2 kmh WNW 9.2 mph14.8 kmh 29.89 in1012.2 mb 0.00 in0.0 mm 0.00 in0.0 mm 0.01 in0.3 mm
01:25 PM 46.8°F8.2°C 38.6°F3.7°C 73% 5.4 mph NW8.7 kmh NW 8.3 mph13.4 kmh 29.88 in1011.9 mb 0.00 in0.0 mm 0.00 in0.0 mm 0.01 in0.3 mm
01:30 PM 46.6°F8.1°C 38.4°F3.6°C 73% 4.5 mph WNW7.2 kmh WNW 9.8 mph15.8 kmh 29.89 in1012.2 mb 0.00 in0.0 mm 0.00 in0.0 mm 0.01 in0.3 mm
01:35 PM 46.4°F8.0°C 38.2°F3.4°C 73% 6.0 mph W9.7 kmh W 9.8 mph15.8 kmh 29.89 in1012.2 mb 0.00 in0.0 mm 0.00 in0.0 mm 0.01 in0.3 mm
01:40 PM 46.4°F8.0°C 38.2°F3.4°C 73% 5.4 mph WSW8.7 kmh WSW 9.8 mph15.8 kmh 29.88 in1011.9 mb 0.00 in0.0 mm 0.00 in0.0 mm 0.01 in0.3 mm
01:45 PM 46.2°F7.9°C 38.1°F3.4°C 73% 4.5 mph WSW7.2 kmh WSW 9.8 mph15.8 kmh 29.89 in1012.2 mb 0.00 in0.0 mm 0.00 in0.0 mm 0.01 in0.3 mm
01:50 PM 46.0°F7.8°C 37.9°F3.3°C 73% 3.1 mph W5.0 kmh W 8.3 mph13.4 kmh 29.88 in1011.9 mb 0.00 in0.0 mm 0.00 in0.0 mm 0.01 in0.3 mm
01:55 PM 45.9°F7.7°C 38.1°F3.4°C 74% 7.6 mph W12.2 kmh W 10.7 mph17.2 kmh 29.89 in1012.2 mb 0.00 in0.0 mm 0.00 in0.0 mm 0.01 in0.3 mm
02:00 PM 45.7°F7.6°C 38.6°F3.7°C 76% 5.4 mph WNW8.7 kmh WNW 10.7 mph17.2 kmh 29.89 in1012.2 mb 0.00 in0.0 mm 0.00 in0.0 mm 0.01 in0.3 mm
02:05 PM 45.7°F7.6°C 38.6°F3.7°C 76% 5.4 mph NW8.7 kmh NW 10.7 mph17.2 kmh 29.89 in1012.2 mb 0.00 in0.0 mm 0.00 in0.0 mm 0.01 in0.3 mm
02:10 PM 45.5°F7.5°C 38.7°F3.7°C 77% 3.8 mph WNW6.1 kmh WNW 7.6 mph12.2 kmh 29.89 in1012.2 mb 0.00 in0.0 mm 0.00 in0.0 mm 0.01 in0.3 mm
02:15 PM 45.5°F7.5°C 38.7°F3.7°C 77% 2.2 mph NW3.5 kmh NW 7.6 mph12.2 kmh 29.89 in1012.2 mb 0.00 in0.0 mm 0.00 in0.0 mm 0.01 in0.3 mm
02:20 PM 45.5°F7.5°C 38.7°F3.7°C 77% 6.9 mph WNW11.1 kmh WNW 10.7 mph17.2 kmh 29.89 in1012.2 mb 0.00 in0.0 mm 0.00 in0.0 mm 0.01 in0.3 mm
02:25 PM 45.5°F7.5°C 38.4°F3.6°C 76% 1.6 mph W2.6 kmh W 10.7 mph17.2 kmh 29.89 in1012.2 mb 0.00 in0.0 mm 0.00 in0.0 mm 0.01 in0.3 mm
02:30 PM 45.5°F7.5°C 38.0°F3.3°C 75% 3.1 mph WSW5.0 kmh WSW 9.2 mph14.8 kmh 29.89 in1012.2 mb 0.00 in0.0 mm 0.00 in0.0 mm 0.01 in0.3 mm
02:35 PM 45.7°F7.6°C 38.2°F3.4°C 75% 2.2 mph WSW3.5 kmh WSW 6.0 mph9.7 kmh 29.89 in1012.2 mb 0.00 in0.0 mm 0.00 in0.0 mm 0.01 in0.3 mm
02:40 PM 46.0°F7.8°C 38.6°F3.7°C 75% 1.6 mph WSW2.6 kmh WSW 6.0 mph9.7 kmh 29.88 in1011.9 mb 0.00 in0.0 mm 0.00 in0.0 mm 0.01 in0.3 mm
02:45 PM 46.6°F8.1°C 39.4°F4.1°C 76% 2.2 mph SW3.5 kmh SW 5.4 mph8.7 kmh 29.87 in1011.5 mb 0.00 in0.0 mm 0.00 in0.0 mm 0.01 in0.3 mm
02:50 PM 47.1°F8.4°C 39.6°F4.2°C 75% 3.1 mph SW5.0 kmh SW 6.0 mph9.7 kmh 29.88 in1011.9 mb 0.00 in0.0 mm 0.00 in0.0 mm 0.01 in0.3 mm
02:55 PM 47.7°F8.7°C 39.4°F4.1°C 73% 5.4 mph W8.7 kmh W 6.9 mph11.1 kmh 29.88 in1011.9 mb 0.00 in0.0 mm 0.00 in0.0 mm 0.01 in0.3 mm
03:00 PM 47.7°F8.7°C 39.1°F3.9°C 72% 4.5 mph W7.2 kmh W 9.2 mph14.8 kmh 29.88 in1011.9 mb 0.00 in0.0 mm 0.00 in0.0 mm 0.01 in0.3 mm
03:05 PM 47.5°F8.6°C 37.8°F3.2°C 69% 5.4 mph W8.7 kmh W 9.2 mph14.8 kmh 29.88 in1011.9 mb 0.00 in0.0 mm 0.00 in0.0 mm 0.01 in0.3 mm
03:10 PM 47.3°F8.5°C 36.9°F2.7°C 67% 3.1 mph WNW5.0 kmh WNW 9.2 mph14.8 kmh 29.88 in1011.9 mb 0.00 in0.0 mm 0.00 in0.0 mm 0.01 in0.3 mm
03:15 PM 47.1°F8.4°C 37.1°F2.8°C 68% 2.2 mph WNW3.5 kmh WNW 9.2 mph14.8 kmh 29.88 in1011.9 mb 0.00 in0.0 mm 0.00 in0.0 mm 0.01 in0.3 mm
03:20 PM 46.9°F8.3°C 37.3°F2.9°C 69% 3.8 mph WNW6.1 kmh WNW 10.7 mph17.2 kmh 29.88 in1011.9 mb 0.00 in0.0 mm 0.00 in0.0 mm 0.01 in0.3 mm
03:25 PM 46.8°F8.2°C 37.5°F3.1°C 70% 3.1 mph NW5.0 kmh NW 10.7 mph17.2 kmh 29.88 in1011.9 mb 0.00 in0.0 mm 0.00 in0.0 mm 0.01 in0.3 mm
03:30 PM 46.4°F8.0°C 37.2°F2.9°C 70% 8.3 mph WNW13.4 kmh WNW 11.4 mph18.3 kmh 29.89 in1012.2 mb 0.00 in0.0 mm 0.00 in0.0 mm 0.01 in0.3 mm
03:35 PM 46.2°F7.9°C 37.3°F2.9°C 71% 8.3 mph WNW13.4 kmh WNW 15.9 mph25.6 kmh 29.89 in1012.2 mb 0.00 in0.0 mm 0.00 in0.0 mm 0.01 in0.3 mm
03:40 PM 45.9°F7.7°C 37.0°F2.8°C 71% 6.0 mph NW9.7 kmh NW 15.9 mph25.6 kmh 29.88 in1011.9 mb 0.00 in0.0 mm 0.00 in0.0 mm 0.01 in0.3 mm
03:45 PM 45.7°F7.6°C 37.2°F2.9°C 72% 4.5 mph NW7.2 kmh NW 13.6 mph21.9 kmh 29.88 in1011.9 mb 0.00 in0.0 mm 0.00 in0.0 mm 0.01 in0.3 mm
03:50 PM 45.3°F7.4°C 36.8°F2.7°C 72% 4.5 mph WNW7.2 kmh WNW 10.7 mph17.2 kmh 29.89 in1012.2 mb 0.00 in0.0 mm 0.00 in0.0 mm 0.01 in0.3 mm
03:55 PM 45.1°F7.3°C 37.0°F2.8°C 73% 5.4 mph NW8.7 kmh NW 8.3 mph13.4 kmh 29.89 in1012.2 mb 0.00 in0.0 mm 0.00 in0.0 mm 0.01 in0.3 mm
04:00 PM 45.1°F7.3°C 37.0°F2.8°C 73% 4.5 mph NW7.2 kmh NW 8.3 mph13.4 kmh 29.89 in1012.2 mb 0.00 in0.0 mm 0.00 in0.0 mm 0.01 in0.3 mm
04:05 PM 45.3°F7.4°C 37.5°F3.1°C 74% 4.5 mph NW7.2 kmh NW 8.3 mph13.4 kmh 29.89 in1012.2 mb 0.00 in0.0 mm 0.00 in0.0 mm 0.01 in0.3 mm
04:10 PM 45.3°F7.4°C 37.5°F3.1°C 74% 3.8 mph NW6.1 kmh NW 9.2 mph14.8 kmh 29.88 in1011.9 mb 0.00 in0.0 mm 0.00 in0.0 mm 0.01 in0.3 mm
04:15 PM 45.3°F7.4°C 37.2°F2.9°C 73% 4.5 mph W7.2 kmh W 9.8 mph15.8 kmh 29.89 in1012.2 mb 0.00 in0.0 mm 0.00 in0.0 mm 0.01 in0.3 mm
04:20 PM 45.1°F7.3°C 36.7°F2.6°C 72% 3.8 mph W6.1 kmh W 9.8 mph15.8 kmh 29.88 in1011.9 mb 0.00 in0.0 mm 0.00 in0.0 mm 0.01 in0.3 mm
04:25 PM 45.0°F7.2°C 36.5°F2.5°C 72% 3.1 mph WNW5.0 kmh WNW 8.3 mph13.4 kmh 29.89 in1012.2 mb 0.00 in0.0 mm 0.00 in0.0 mm 0.01 in0.3 mm
04:30 PM 45.0°F7.2°C 36.5°F2.5°C 72% 3.1 mph W5.0 kmh W 8.3 mph13.4 kmh 29.89 in1012.2 mb 0.00 in0.0 mm 0.00 in0.0 mm 0.01 in0.3 mm
04:35 PM 45.0°F7.2°C 36.1°F2.3°C 71% 2.2 mph W3.5 kmh W 6.9 mph11.1 kmh 29.88 in1011.9 mb 0.00 in0.0 mm 0.00 in0.0 mm 0.01 in0.3 mm
04:40 PM 45.0°F7.2°C 36.1°F2.3°C 71% 3.8 mph W6.1 kmh W 6.9 mph11.1 kmh 29.89 in1012.2 mb 0.00 in0.0 mm 0.00 in0.0 mm 0.01 in0.3 mm
04:45 PM 44.8°F7.1°C 36.3°F2.4°C 72% 3.8 mph W6.1 kmh W 6.0 mph9.7 kmh 29.88 in1011.9 mb 0.00 in0.0 mm 0.00 in0.0 mm 0.01 in0.3 mm
04:50 PM 44.8°F7.1°C 36.3°F2.4°C 72% 3.8 mph NW6.1 kmh NW 6.0 mph9.7 kmh 29.89 in1012.2 mb 0.00 in0.0 mm 0.00 in0.0 mm 0.01 in0.3 mm
04:55 PM 44.6°F7.0°C 36.5°F2.5°C 73% 3.1 mph WNW5.0 kmh WNW 5.4 mph8.7 kmh 29.89 in1012.2 mb 0.00 in0.0 mm 0.00 in0.0 mm 0.01 in0.3 mm
05:00 PM 44.6°F7.0°C 36.5°F2.5°C 73% 2.2 mph W3.5 kmh W 5.4 mph8.7 kmh 29.89 in1012.2 mb 0.00 in0.0 mm 0.00 in0.0 mm 0.01 in0.3 mm
05:05 PM 44.6°F7.0°C 36.5°F2.5°C 73% 3.1 mph W5.0 kmh W 5.4 mph8.7 kmh 29.89 in1012.2 mb 0.00 in0.0 mm 0.00 in0.0 mm 0.01 in0.3 mm
05:10 PM 44.4°F6.9°C 36.7°F2.6°C 74% 3.1 mph WNW5.0 kmh WNW 4.5 mph7.2 kmh 29.89 in1012.2 mb 0.00 in0.0 mm 0.00 in0.0 mm 0.01 in0.3 mm
05:15 PM 44.4°F6.9°C 37.0°F2.8°C 75% 3.1 mph WNW5.0 kmh WNW 4.5 mph7.2 kmh 29.89 in1012.2 mb 0.00 in0.0 mm 0.00 in0.0 mm 0.01 in0.3 mm
05:20 PM 44.2°F6.8°C 36.8°F2.7°C 75% 2.2 mph W3.5 kmh W 4.5 mph7.2 kmh 29.89 in1012.2 mb 0.00 in0.0 mm 0.00 in0.0 mm 0.01 in0.3 mm
05:25 PM 44.2°F6.8°C 37.2°F2.9°C 76% 2.2 mph W3.5 kmh W 3.8 mph6.1 kmh 29.90 in1012.5 mb 0.00 in0.0 mm 0.00 in0.0 mm 0.01 in0.3 mm
05:30 PM 44.2°F6.8°C 37.5°F3.1°C 77% 2.2 mph W3.5 kmh W 3.8 mph6.1 kmh 29.89 in1012.2 mb 0.00 in0.0 mm 0.00 in0.0 mm 0.01 in0.3 mm
05:35 PM 44.1°F6.7°C 37.6°F3.1°C 78% 1.6 mph W2.6 kmh W 3.8 mph6.1 kmh 29.89 in1012.2 mb 0.00 in0.0 mm 0.00 in0.0 mm 0.01 in0.3 mm
05:40 PM 44.1°F6.7°C 37.6°F3.1°C 78% 2.2 mph WNW3.5 kmh WNW 3.8 mph6.1 kmh 29.89 in1012.2 mb 0.00 in0.0 mm 0.00 in0.0 mm 0.01 in0.3 mm
05:45 PM 44.1°F6.7°C 37.6°F3.1°C 78% 1.6 mph W2.6 kmh W 3.8 mph6.1 kmh 29.89 in1012.2 mb 0.00 in0.0 mm 0.00 in0.0 mm 0.01 in0.3 mm
05:50 PM 43.9°F6.6°C 37.8°F3.2°C 79% 1.6 mph W2.6 kmh W 3.8 mph6.1 kmh 29.90 in1012.5 mb 0.00 in0.0 mm 0.00 in0.0 mm 0.01 in0.3 mm
05:55 PM 43.9°F6.6°C 37.8°F3.2°C 79% 1.6 mph W2.6 kmh W 3.8 mph6.1 kmh 29.90 in1012.5 mb 0.00 in0.0 mm 0.00 in0.0 mm 0.01 in0.3 mm
06:00 PM 43.9°F6.6°C 37.8°F3.2°C 79% 1.6 mph W2.6 kmh W 3.1 mph5.0 kmh 29.90 in1012.5 mb 0.00 in0.0 mm 0.00 in0.0 mm 0.01 in0.3 mm
06:05 PM 43.9°F6.6°C 37.8°F3.2°C 79% 1.6 mph W2.6 kmh W 3.1 mph5.0 kmh 29.90 in1012.5 mb 0.00 in0.0 mm 0.00 in0.0 mm 0.01 in0.3 mm
06:10 PM 43.9°F6.6°C 38.1°F3.4°C 80% 1.6 mph W2.6 kmh W 3.1 mph5.0 kmh 29.90 in1012.5 mb 0.00 in0.0 mm 0.00 in0.0 mm 0.01 in0.3 mm
06:15 PM 43.9°F6.6°C 38.4°F3.6°C 81% 2.2 mph W3.5 kmh W 3.8 mph6.1 kmh 29.90 in1012.5 mb 0.00 in0.0 mm 0.00 in0.0 mm 0.01 in0.3 mm
06:20 PM 43.7°F6.5°C 38.3°F3.5°C 81% 0.7 mph W1.1 kmh W 3.8 mph6.1 kmh 29.90 in1012.5 mb 0.00 in0.0 mm 0.00 in0.0 mm 0.01 in0.3 mm
06:25 PM 43.7°F6.5°C 38.3°F3.5°C 81% 0.7 mph W1.1 kmh W 3.1 mph5.0 kmh 29.89 in1012.2 mb 0.00 in0.0 mm 0.00 in0.0 mm 0.01 in0.3 mm
06:30 PM 43.7°F6.5°C 38.3°F3.5°C 81% 1.6 mph WNW2.6 kmh WNW 3.1 mph5.0 kmh 29.90 in1012.5 mb 0.00 in0.0 mm 0.00 in0.0 mm 0.01 in0.3 mm
06:35 PM 43.7°F6.5°C 38.3°F3.5°C 81% 1.6 mph W2.6 kmh W 3.1 mph5.0 kmh 29.89 in1012.2 mb 0.00 in0.0 mm 0.00 in0.0 mm 0.01 in0.3 mm
06:40 PM 43.7°F6.5°C 38.3°F3.5°C 81% 1.6 mph W2.6 kmh W 3.1 mph5.0 kmh 29.89 in1012.2 mb 0.00 in0.0 mm 0.00 in0.0 mm 0.01 in0.3 mm
06:45 PM 43.7°F6.5°C 38.3°F3.5°C 81% 2.2 mph W3.5 kmh W 6.0 mph9.7 kmh 29.89 in1012.2 mb 0.00 in0.0 mm 0.00 in0.0 mm 0.01 in0.3 mm
06:50 PM 43.7°F6.5°C 38.3°F3.5°C 81% 2.2 mph W3.5 kmh W 6.0 mph9.7 kmh 29.89 in1012.2 mb 0.00 in0.0 mm 0.00 in0.0 mm 0.01 in0.3 mm
06:55 PM 43.7°F6.5°C 38.3°F3.5°C 81% 2.2 mph WNW3.5 kmh WNW 4.5 mph7.2 kmh 29.89 in1012.2 mb 0.00 in0.0 mm 0.00 in0.0 mm 0.01 in0.3 mm
07:00 PM 43.7°F6.5°C 37.9°F3.3°C 80% 3.1 mph W5.0 kmh W 4.5 mph7.2 kmh 29.89 in1012.2 mb 0.00 in0.0 mm 0.00 in0.0 mm 0.01 in0.3 mm
07:05 PM 43.7°F6.5°C 37.9°F3.3°C 80% 1.6 mph W2.6 kmh W 4.5 mph7.2 kmh 29.89 in1012.2 mb 0.00 in0.0 mm 0.00 in0.0 mm 0.01 in0.3 mm
07:10 PM 43.7°F6.5°C 37.9°F3.3°C 80% 3.1 mph W5.0 kmh W 4.5 mph7.2 kmh 29.89 in1012.2 mb 0.00 in0.0 mm 0.00 in0.0 mm 0.01 in0.3 mm
07:15 PM 43.7°F6.5°C 37.9°F3.3°C 80% 1.6 mph W2.6 kmh W 4.5 mph7.2 kmh 29.89 in1012.2 mb 0.00 in0.0 mm 0.00 in0.0 mm 0.01 in0.3 mm
07:20 PM 43.7°F6.5°C 37.6°F3.1°C 79% 3.1 mph W5.0 kmh W 6.0 mph9.7 kmh 29.89 in1012.2 mb 0.00 in0.0 mm 0.00 in0.0 mm 0.01 in0.3 mm
07:25 PM 43.7°F6.5°C 37.6°F3.1°C 79% 2.2 mph WSW3.5 kmh WSW 6.0 mph9.7 kmh 29.89 in1012.2 mb 0.00 in0.0 mm 0.00 in0.0 mm 0.01 in0.3 mm
07:30 PM 43.9°F6.6°C 37.8°F3.2°C 79% 2.2 mph WSW3.5 kmh WSW 5.4 mph8.7 kmh 29.89 in1012.2 mb 0.00 in0.0 mm 0.00 in0.0 mm 0.01 in0.3 mm
07:35 PM 43.7°F6.5°C 37.6°F3.1°C 79% 2.2 mph WSW3.5 kmh WSW 3.8 mph6.1 kmh 29.89 in1012.2 mb 0.00 in0.0 mm 0.00 in0.0 mm 0.01 in0.3 mm
07:40 PM 43.7°F6.5°C 37.9°F3.3°C 80% 0.7 mph W1.1 kmh W 3.8 mph6.1 kmh 29.89 in1012.2 mb 0.00 in0.0 mm 0.00 in0.0 mm 0.01 in0.3 mm
07:45 PM 43.7°F6.5°C 37.9°F3.3°C 80% 1.6 mph WNW2.6 kmh WNW 3.8 mph6.1 kmh 29.89 in1012.2 mb 0.00 in0.0 mm 0.00 in0.0 mm 0.01 in0.3 mm
07:50 PM 43.5°F6.4°C 38.1°F3.4°C 81% 1.6 mph WNW2.6 kmh WNW 3.8 mph6.1 kmh 29.89 in1012.2 mb 0.00 in0.0 mm 0.00 in0.0 mm 0.01 in0.3 mm
07:55 PM 43.5°F6.4°C 38.1°F3.4°C 81% 0.7 mph WNW1.1 kmh WNW 3.1 mph5.0 kmh 29.89 in1012.2 mb 0.00 in0.0 mm 0.00 in0.0 mm 0.01 in0.3 mm
08:00 PM 43.3°F6.3°C 38.2°F3.4°C 82% 2.2 mph WNW3.5 kmh WNW 3.1 mph5.0 kmh 29.89 in1012.2 mb 0.00 in0.0 mm 0.00 in0.0 mm 0.01 in0.3 mm
08:05 PM 43.3°F6.3°C 38.2°F3.4°C 82% 2.2 mph W3.5 kmh W 3.8 mph6.1 kmh 29.89 in1012.2 mb 0.00 in0.0 mm 0.00 in0.0 mm 0.01 in0.3 mm
08:10 PM 43.3°F6.3°C 38.2°F3.4°C 82% 1.6 mph WNW2.6 kmh WNW 3.8 mph6.1 kmh 29.89 in1012.2 mb 0.00 in0.0 mm 0.00 in0.0 mm 0.01 in0.3 mm
08:15 PM 43.3°F6.3°C 38.5°F3.6°C 83% 1.6 mph NW2.6 kmh NW 3.8 mph6.1 kmh 29.89 in1012.2 mb 0.00 in0.0 mm 0.00 in0.0 mm 0.01 in0.3 mm
08:20 PM 43.2°F6.2°C 38.4°F3.6°C 83% 1.6 mph NW2.6 kmh NW 3.8 mph6.1 kmh 29.89 in1012.2 mb 0.00 in0.0 mm 0.00 in0.0 mm 0.01 in0.3 mm
08:25 PM 43.2°F6.2°C 38.4°F3.6°C 83% 2.2 mph NW3.5 kmh NW 3.8 mph6.1 kmh 29.90 in1012.5 mb 0.00 in0.0 mm 0.00 in0.0 mm 0.01 in0.3 mm
08:30 PM 43.2°F6.2°C 38.7°F3.7°C 84% 2.2 mph NW3.5 kmh NW 5.4 mph8.7 kmh 29.90 in1012.5 mb 0.00 in0.0 mm 0.00 in0.0 mm 0.01 in0.3 mm
08:35 PM 43.2°F6.2°C 38.7°F3.7°C 84% 0.7 mph NW1.1 kmh NW 5.4 mph8.7 kmh 29.89 in1012.2 mb 0.00 in0.0 mm 0.00 in0.0 mm 0.01 in0.3 mm
08:40 PM 43.2°F6.2°C 38.7°F3.7°C 84% 1.6 mph NW2.6 kmh NW 3.8 mph6.1 kmh 29.90 in1012.5 mb 0.00 in0.0 mm 0.00 in0.0 mm 0.01 in0.3 mm
08:45 PM 43.0°F6.1°C 38.5°F3.6°C 84% 0.7 mph NW1.1 kmh NW 3.1 mph5.0 kmh 29.89 in1012.2 mb 0.00 in0.0 mm 0.00 in0.0 mm 0.01 in0.3 mm
08:50 PM 43.0°F6.1°C 38.8°F3.8°C 85% 1.6 mph NW2.6 kmh NW 3.8 mph6.1 kmh 29.89 in1012.2 mb 0.00 in0.0 mm 0.00 in0.0 mm 0.01 in0.3 mm
08:55 PM 43.0°F6.1°C 38.8°F3.8°C 85% 0.7 mph NW1.1 kmh NW 3.8 mph6.1 kmh 29.89 in1012.2 mb 0.00 in0.0 mm 0.00 in0.0 mm 0.01 in0.3 mm
09:00 PM 43.0°F6.1°C 38.8°F3.8°C 85% 0.7 mph NW1.1 kmh NW 4.5 mph7.2 kmh 29.89 in1012.2 mb 0.00 in0.0 mm 0.00 in0.0 mm 0.01 in0.3 mm
09:05 PM 43.0°F6.1°C 38.8°F3.8°C 85% 1.6 mph WNW2.6 kmh WNW 4.5 mph7.2 kmh 29.89 in1012.2 mb 0.00 in0.0 mm 0.00 in0.0 mm 0.01 in0.3 mm
09:10 PM 43.0°F6.1°C 39.1°F3.9°C 86% 1.6 mph W2.6 kmh W 3.8 mph6.1 kmh 29.89 in1012.2 mb 0.00 in0.0 mm 0.00 in0.0 mm 0.01 in0.3 mm
09:15 PM 43.0°F6.1°C 39.1°F3.9°C 86% 0.7 mph NW1.1 kmh NW 3.8 mph6.1 kmh 29.89 in1012.2 mb 0.00 in0.0 mm 0.00 in0.0 mm 0.01 in0.3 mm
09:20 PM 42.8°F6.0°C 38.9°F3.8°C 86% 2.2 mph NW3.5 kmh NW 3.8 mph6.1 kmh 29.89 in1012.2 mb 0.00 in0.0 mm 0.00 in0.0 mm 0.01 in0.3 mm
09:25 PM 42.8°F6.0°C 39.2°F4.0°C 87% 3.1 mph NW5.0 kmh NW 4.5 mph7.2 kmh 29.89 in1012.2 mb 0.00 in0.0 mm 0.00 in0.0 mm 0.01 in0.3 mm
09:30 PM 42.8°F6.0°C 39.2°F4.0°C 87% 2.2 mph NW3.5 kmh NW 4.5 mph7.2 kmh 29.89 in1012.2 mb 0.00 in0.0 mm 0.00 in0.0 mm 0.01 in0.3 mm
09:35 PM 42.8°F6.0°C 39.2°F4.0°C 87% 1.6 mph NW2.6 kmh NW 3.8 mph6.1 kmh 29.89 in1012.2 mb 0.00 in0.0 mm 0.00 in0.0 mm 0.01 in0.3 mm
09:40 PM 42.6°F5.9°C 39.3°F4.1°C 88% 3.1 mph NW5.0 kmh NW 4.5 mph7.2 kmh 29.89 in1012.2 mb 0.00 in0.0 mm 0.00 in0.0 mm 0.01 in0.3 mm
09:45 PM 42.6°F5.9°C 39.3°F4.1°C 88% 2.2 mph NW3.5 kmh NW 4.5 mph7.2 kmh 29.89 in1012.2 mb 0.00 in0.0 mm 0.00 in0.0 mm 0.01 in0.3 mm
09:50 PM 42.6°F5.9°C 39.3°F4.1°C 88% 2.2 mph NW3.5 kmh NW 4.5 mph7.2 kmh 29.89 in1012.2 mb 0.00 in0.0 mm 0.00 in0.0 mm 0.01 in0.3 mm
09:55 PM 42.6°F5.9°C 39.3°F4.1°C 88% 2.2 mph NW3.5 kmh NW 3.8 mph6.1 kmh 29.89 in1012.2 mb 0.00 in0.0 mm 0.00 in0.0 mm 0.01 in0.3 mm
10:00 PM 42.4°F5.8°C 39.4°F4.1°C 89% 0.7 mph NW1.1 kmh NW 4.5 mph7.2 kmh 29.89 in1012.2 mb 0.00 in0.0 mm 0.00 in0.0 mm 0.01 in0.3 mm
10:05 PM 42.4°F5.8°C 39.4°F4.1°C 89% 0.7 mph NW1.1 kmh NW 4.5 mph7.2 kmh 29.89 in1012.2 mb 0.00 in0.0 mm 0.00 in0.0 mm 0.01 in0.3 mm
10:10 PM 42.4°F5.8°C 39.4°F4.1°C 89% 1.6 mph NW2.6 kmh NW 3.1 mph5.0 kmh 29.89 in1012.2 mb 0.00 in0.0 mm 0.00 in0.0 mm 0.01 in0.3 mm
10:15 PM 42.4°F5.8°C 39.4°F4.1°C 89% 2.2 mph NW3.5 kmh NW 3.8 mph6.1 kmh 29.89 in1012.2 mb 0.00 in0.0 mm 0.00 in0.0 mm 0.01 in0.3 mm
10:20 PM 42.4°F5.8°C 39.4°F4.1°C 89% 0.7 mph NW1.1 kmh NW 3.8 mph6.1 kmh 29.89 in1012.2 mb 0.00 in0.0 mm 0.00 in0.0 mm 0.01 in0.3 mm
10:25 PM 42.4°F5.8°C 39.4°F4.1°C 89% 0.7 mph NW1.1 kmh NW 2.2 mph3.5 kmh 29.89 in1012.2 mb 0.00 in0.0 mm 0.00 in0.0 mm 0.01 in0.3 mm
10:30 PM 42.4°F5.8°C 39.4°F4.1°C 89% 1.6 mph WNW2.6 kmh WNW 3.8 mph6.1 kmh 29.89 in1012.2 mb 0.00 in0.0 mm 0.00 in0.0 mm 0.01 in0.3 mm
10:35 PM 42.6°F5.9°C 39.6°F4.2°C 89% 1.6 mph WNW2.6 kmh WNW 3.8 mph6.1 kmh 29.89 in1012.2 mb 0.00 in0.0 mm 0.00 in0.0 mm 0.01 in0.3 mm
10:40 PM 42.6°F5.9°C 39.6°F4.2°C 89% 3.1 mph NW5.0 kmh NW 4.5 mph7.2 kmh 29.89 in1012.2 mb 0.00 in0.0 mm 0.00 in0.0 mm 0.01 in0.3 mm
10:45 PM 42.6°F5.9°C 39.6°F4.2°C 89% 3.8 mph NW6.1 kmh NW 5.4 mph8.7 kmh 29.89 in1012.2 mb 0.00 in0.0 mm 0.00 in0.0 mm 0.01 in0.3 mm
10:50 PM 42.6°F5.9°C 39.6°F4.2°C 89% 1.6 mph NW2.6 kmh NW 5.4 mph8.7 kmh 29.89 in1012.2 mb 0.00 in0.0 mm 0.00 in0.0 mm 0.01 in0.3 mm
10:55 PM 42.6°F5.9°C 39.6°F4.2°C 89% 0.7 mph NW1.1 kmh NW 5.4 mph8.7 kmh 29.89 in1012.2 mb 0.00 in0.0 mm 0.00 in0.0 mm 0.01 in0.3 mm
11:00 PM 42.6°F5.9°C 39.6°F4.2°C 89% 0.7 mph NW1.1 kmh NW 2.2 mph3.5 kmh 29.88 in1011.9 mb 0.00 in0.0 mm 0.00 in0.0 mm 0.01 in0.3 mm
11:05 PM 42.6°F5.9°C 39.6°F4.2°C 89% 0.7 mph NNW1.1 kmh NNW 2.2 mph3.5 kmh 29.89 in1012.2 mb 0.00 in0.0 mm 0.00 in0.0 mm 0.01 in0.3 mm
11:10 PM 42.6°F5.9°C 39.6°F4.2°C 89% Calm Calm 2.2 mph3.5 kmh 29.88 in1011.9 mb 0.00 in0.0 mm 0.00 in0.0 mm 0.01 in0.3 mm
11:15 PM 42.6°F5.9°C 39.6°F4.2°C 89% 0.7 mph NW1.1 kmh NW 1.6 mph2.6 kmh 29.88 in1011.9 mb 0.00 in0.0 mm 0.00 in0.0 mm 0.01 in0.3 mm
11:20 PM 42.6°F5.9°C 39.6°F4.2°C 89% 1.6 mph NNW2.6 kmh NNW 2.2 mph3.5 kmh 29.88 in1011.9 mb 0.00 in0.0 mm 0.00 in0.0 mm 0.01 in0.3 mm
11:25 PM 42.6°F5.9°C 39.6°F4.2°C 89% 1.6 mph N2.6 kmh N 3.1 mph5.0 kmh 29.88 in1011.9 mb 0.00 in0.0 mm 0.00 in0.0 mm 0.01 in0.3 mm
11:30 PM 42.6°F5.9°C 39.9°F4.4°C 90% 1.6 mph N2.6 kmh N 3.1 mph5.0 kmh 29.88 in1011.9 mb 0.00 in0.0 mm 0.00 in0.0 mm 0.01 in0.3 mm
11:35 PM 42.4°F5.8°C 39.7°F4.3°C 90% Calm Calm 3.1 mph5.0 kmh 29.88 in1011.9 mb 0.00 in0.0 mm 0.00 in0.0 mm 0.01 in0.3 mm
11:40 PM 42.4°F5.8°C 39.7°F4.3°C 90% Calm Calm 2.2 mph3.5 kmh 29.88 in1011.9 mb 0.00 in0.0 mm 0.00 in0.0 mm 0.01 in0.3 mm
11:45 PM 42.4°F5.8°C 39.7°F4.3°C 90% Calm Calm -- 29.87 in1011.5 mb 0.00 in0.0 mm 0.00 in0.0 mm 0.01 in0.3 mm
11:50 PM 42.4°F5.8°C 39.7°F4.3°C 90% 1.6 mph E2.6 kmh E 2.2 mph3.5 kmh 29.87 in1011.5 mb 0.00 in0.0 mm 0.00 in0.0 mm 0.01 in0.3 mm
11:55 PM 42.4°F5.8°C 40.0°F4.4°C 91% 1.6 mph E2.6 kmh E 2.2 mph3.5 kmh 29.88 in1011.9 mb 0.00 in0.0 mm 0.00 in0.0 mm 0.01 in0.3 mm